Time;durP1;ratioP1;P1;durP2;ratioP2;P2;SDS_P1;SDS_P2;PMS_P1;PMS_P2;Temp;Humidity;BMP_temperature;BMP_pressure;BME280_temperature;BME280_humidity;BME280_pressure;Samples;Min_cycle;Max_cycle;Signal;HPM_P1;HPM_P2
2022/02/25 00:00:21;;;;;;;11.13;2.53;;;18.70;20.30;;;;;;5085491;28;20110;-64
2022/02/25 00:02:47;;;;;;;10.13;1.55;;;18.80;20.40;;;;;;5087517;28;20100;-67
2022/02/25 00:05:14;;;;;;;7.80;1.48;;;18.70;20.10;;;;;;5083124;28;20073;-67
2022/02/25 00:07:40;;;;;;;10.70;3.40;;;18.70;20.40;;;;;;5087132;28;20077;-64
2022/02/25 00:10:07;;;;;;;10.18;2.20;;;18.70;20.60;;;;;;5086380;28;20092;-66
2022/02/25 00:12:34;;;;;;;7.95;1.58;;;18.70;20.50;;;;;;5070698;28;20081;-64
2022/02/25 00:15:00;;;;;;;11.45;1.60;;;18.70;20.70;;;;;;5088071;28;20438;-66
2022/02/25 00:17:27;;;;;;;14.15;2.00;;;18.50;20.60;;;;;;5089300;28;20108;-63
2022/02/25 00:19:53;;;;;;;11.30;1.50;;;18.40;21.20;;;;;;5087385;28;20108;-64
2022/02/25 00:22:20;;;;;;;10.65;1.95;;;18.40;21.40;;;;;;5088587;28;20099;-65
2022/02/25 00:24:46;;;;;;;;;;;18.30;21.20;;;;;;5086673;28;20103;-65
2022/02/25 00:27:12;;;;;;;5.47;0.90;;;18.20;21.60;;;;;;5086638;28;19957;-67
2022/02/25 00:29:39;;;;;;;8.35;1.27;;;18.20;21.70;;;;;;5087076;28;20069;-64
2022/02/25 00:32:06;;;;;;;12.45;1.80;;;18.10;21.50;;;;;;5088074;28;20446;-65
2022/02/25 00:34:32;;;;;;;10.50;1.33;;;18.00;21.50;;;;;;5086300;28;20150;-65
2022/02/25 00:36:59;;;;;;;6.38;1.85;;;17.90;21.40;;;;;;5088140;28;20488;-65
2022/02/25 00:39:25;;;;;;;;;;;17.80;21.50;;;;;;5088826;28;20093;-65
2022/02/25 00:41:51;;;;;;;6.30;1.20;;;17.80;21.50;;;;;;5090667;28;19983;-67
2022/02/25 00:44:18;;;;;;;12.50;1.48;;;17.60;21.80;;;;;;5089541;28;20080;-68
2022/02/25 00:46:44;;;;;;;9.63;1.30;;;17.50;22.00;;;;;;5089252;28;20065;-70
2022/02/25 00:49:10;;;;;;;7.50;1.13;;;17.40;22.10;;;;;;5091543;28;20069;-71
2022/02/25 00:51:37;;;;;;;;;;;17.40;21.90;;;;;;5090142;28;20750;-74
2022/02/25 00:54:03;;;;;;;6.05;1.35;;;17.30;22.30;;;;;;5091987;28;19956;-72
2022/02/25 00:56:30;;;;;;;9.32;1.05;;;17.10;22.70;;;;;;5101523;28;20085;-73
2022/02/25 00:58:56;;;;;;;7.43;1.35;;;17.00;22.70;;;;;;5092609;28;20214;-72
2022/02/25 01:01:22;;;;;;;;;;;16.90;23.10;;;;;;5093587;28;20123;-71
2022/02/25 01:03:48;;;;;;;3.88;1.10;;;16.80;23.20;;;;;;5091771;28;19973;-71
2022/02/25 01:06:15;;;;;;;13.20;1.70;;;16.70;23.30;;;;;;5091604;28;20075;-73
2022/02/25 01:08:41;;;;;;;8.30;1.30;;;16.60;23.40;;;;;;5092427;28;20618;-71
2022/02/25 01:11:07;;;;;;;;;;;16.50;23.70;;;;;;5089461;28;20080;-70
2022/02/25 01:13:34;;;;;;;11.57;1.83;;;16.40;24.00;;;;;;5090546;28;20006;-71
2022/02/25 01:16:00;;;;;;;;;;;16.30;23.90;;;;;;5094280;28;20069;-70
2022/02/25 01:18:26;;;;;;;10.02;1.50;;;16.20;24.00;;;;;;5087149;28;20074;-70
2022/02/25 01:20:53;;;;;;;11.82;1.65;;;16.20;24.10;;;;;;5088649;28;20112;-72
2022/02/25 01:23:19;;;;;;;;;;;16.10;24.40;;;;;;5090431;28;20081;-71
2022/02/25 01:25:45;;;;;;;13.73;1.10;;;16.00;24.20;;;;;;5091182;28;19963;-69
2022/02/25 01:28:11;;;;;;;;;;;16.00;24.30;;;;;;5090238;28;20084;-70
2022/02/25 01:30:38;;;;;;;13.70;2.05;;;15.90;24.30;;;;;;5090298;28;20445;-70
2022/02/25 01:33:04;;;;;;;7.53;1.50;;;15.80;24.50;;;;;;5091956;28;20492;-71
2022/02/25 01:35:31;;;;;;;10.50;1.52;;;15.70;24.80;;;;;;5090407;28;20099;-70
2022/02/25 01:37:57;;;;;;;;;;;15.70;24.90;;;;;;5092595;28;20083;-70
2022/02/25 01:40:23;;;;;;;15.32;2.33;;;15.60;25.10;;;;;;5089177;28;19961;-69
2022/02/25 01:42:53;;;;;;;7.13;1.30;;;15.60;25.50;;;;;;5094429;28;20095;-71
2022/02/25 01:45:20;;;;;;;11.95;1.38;;;15.50;25.10;;;;;;5089531;28;20099;-71
2022/02/25 01:47:47;;;;;;;14.48;1.83;;;15.50;25.20;;;;;;5088106;28;20542;-70
2022/02/25 01:50:14;;;;;;;16.23;2.00;;;15.40;25.30;;;;;;5089308;28;20079;-71
2022/02/25 01:52:59;;;;;;;16.88;1.88;;;15.30;25.30;;;;;;5090601;28;20072;-70
2022/02/25 01:55:25;;;;;;;12.20;1.88;;;15.30;25.50;;;;;;5072630;28;20098;-70
2022/02/25 01:57:52;;;;;;;;;;;15.20;25.70;;;;;;5092232;28;20080;-69
2022/02/25 02:00:18;;;;;;;15.55;2.92;;;15.10;26.00;;;;;;5096546;28;19957;-70
2022/02/25 02:02:45;;;;;;;8.15;2.40;;;15.10;26.10;;;;;;5092651;28;20099;-71
2022/02/25 02:05:11;;;;;;;14.40;2.85;;;15.00;26.40;;;;;;5090447;28;20068;-69
2022/02/25 02:07:37;;;;;;;;;;;14.90;26.50;;;;;;5089487;28;20119;-71
2022/02/25 02:10:05;;;;;;;11.85;1.85;;;14.90;26.70;;;;;;5092409;28;20372;-70
2022/02/25 02:12:32;;;;;;;19.60;2.20;;;14.90;27.00;;;;;;5091592;28;20163;-70
2022/02/25 02:14:58;;;;;;;;;;;14.80;27.10;;;;;;5093675;28;20096;-70
2022/02/25 02:17:24;;;;;;;20.13;2.25;;;14.70;27.30;;;;;;5089748;28;19987;-69
2022/02/25 02:19:51;;;;;;;21.75;3.38;;;14.70;27.80;;;;;;5086959;28;20096;-69
2022/02/25 02:22:23;;;;;;;18.00;2.58;;;14.60;27.70;;;;;;5088844;28;20092;-69
2022/02/25 02:24:49;;;;;;;22.70;3.33;;;14.60;28.00;;;;;;5072232;28;20573;-70
2022/02/25 02:27:16;;;;;;;16.92;2.65;;;14.60;28.10;;;;;;5089866;28;20084;-69
2022/02/25 02:29:42;;;;;;;12.40;2.38;;;14.50;28.30;;;;;;5089111;28;20079;-69
2022/02/25 02:32:09;;;;;;;;;;;14.50;28.40;;;;;;5090333;28;20077;-72
2022/02/25 02:34:35;;;;;;;14.25;2.10;;;14.40;28.60;;;;;;5093628;28;19957;-69
2022/02/25 02:37:01;;;;;;;;;;;14.30;28.70;;;;;;5090417;28;20071;-67
2022/02/25 02:39:27;;;;;;;15.73;2.25;;;14.30;28.80;;;;;;5088869;28;19979;-69
2022/02/25 02:41:53;;;;;;;;;;;14.30;28.90;;;;;;5090284;28;20096;-69
2022/02/25 02:44:20;;;;;;;14.23;2.00;;;14.20;28.90;;;;;;5089251;28;20002;-67
2022/02/25 02:46:46;;;;;;;12.55;1.98;;;14.20;28.80;;;;;;5086760;28;20068;-70
2022/02/25 02:49:13;;;;;;;;;;;14.20;29.00;;;;;;5091575;28;20466;-69
2022/02/25 02:51:39;;;;;;;22.17;2.05;;;14.10;29.20;;;;;;5088188;28;19960;-68
2022/02/25 02:54:06;;;;;;;26.95;2.70;;;14.10;29.30;;;;;;5088703;28;20077;-69
2022/02/25 02:56:32;;;;;;;;;;;13.90;29.40;;;;;;5088948;28;20139;-71
2022/02/25 02:58:58;;;;;;;12.45;2.58;;;13.90;29.50;;;;;;5086599;28;19965;-71
2022/02/25 03:01:29;;;;;;;;;;;13.80;29.50;;;;;;5086681;28;20102;-70
2022/02/25 03:03:56;;;;;;;14.23;1.88;;;13.80;29.60;;;;;;5087347;28;20407;-71
2022/02/25 03:06:23;;;;;;;17.33;2.42;;;13.80;29.70;;;;;;5071887;28;20073;-74
2022/02/25 03:08:50;;;;;;;11.27;2.22;;;13.70;29.70;;;;;;5089089;28;20072;-70
2022/02/25 03:11:16;;;;;;;11.27;2.28;;;13.60;29.70;;;;;;5089989;28;20095;-71
2022/02/25 03:13:42;;;;;;;21.63;3.88;;;13.60;30.00;;;;;;5072707;28;20081;-72
2022/02/25 03:16:09;;;;;;;;;;;13.50;30.30;;;;;;5089218;28;20080;-70
2022/02/25 03:18:35;;;;;;;32.35;4.72;;;13.50;30.50;;;;;;5087438;28;20083;-72
2022/02/25 03:21:02;;;;;;;20.02;4.10;;;13.40;30.60;;;;;;5089786;28;20071;-70
2022/02/25 03:23:28;;;;;;;33.63;4.43;;;13.40;30.80;;;;;;5087483;28;20077;-71
2022/02/25 03:25:55;;;;;;;29.10;4.93;;;13.40;30.90;;;;;;5088314;28;20588;-71
2022/02/25 03:28:21;;;;;;;24.77;3.70;;;13.40;31.10;;;;;;5089712;28;20504;-70
2022/02/25 03:30:47;;;;;;;;;;;13.40;31.30;;;;;;5089299;28;20530;-70
2022/02/25 03:33:14;;;;;;;27.13;3.97;;;13.30;31.50;;;;;;5088952;28;19956;-70
2022/02/25 03:35:40;;;;;;;27.73;4.40;;;13.20;31.90;;;;;;5088544;28;20441;-68
2022/02/25 03:38:09;;;;;;;;;;;13.10;32.20;;;;;;5087949;28;20087;-71
2022/02/25 03:40:35;;;;;;;31.70;6.10;;;13.10;31.80;;;;;;5069625;28;19957;-70
2022/02/25 03:43:02;;;;;;;32.53;5.18;;;13.00;31.80;;;;;;5087279;28;20088;-72
2022/02/25 03:45:28;;;;;;;34.53;4.63;;;13.00;32.10;;;;;;5084445;28;20092;-70
2022/02/25 03:47:55;;;;;;;30.58;4.63;;;13.00;32.20;;;;;;5088816;28;20181;-70
2022/02/25 03:50:21;;;;;;;;;;;13.00;31.90;;;;;;5088817;28;20080;-70
2022/02/25 03:52:47;;;;;;;32.45;6.13;;;12.90;31.90;;;;;;5087182;28;19961;-70
2022/02/25 03:55:13;;;;;;;;;;;12.70;31.90;;;;;;5092696;28;20099;-70
2022/02/25 03:57:40;;;;;;;36.78;6.57;;;12.70;32.20;;;;;;5088104;28;20402;-71
2022/02/25 04:00:11;;;;;;;35.85;6.57;;;12.60;32.50;;;;;;5086847;28;20118;-71
2022/02/25 04:02:37;;;;;;;33.78;7.22;;;12.60;32.80;;;;;;5086769;28;20093;-73
2022/02/25 04:05:05;;;;;;;29.90;6.85;;;12.60;33.10;;;;;;5087342;28;20519;-70
2022/02/25 04:07:31;;;;;;;37.42;6.68;;;12.60;33.30;;;;;;5086752;28;20541;-72
2022/02/25 04:09:57;;;;;;;34.65;6.15;;;12.60;33.50;;;;;;5088161;28;20073;-73
2022/02/25 04:12:24;;;;;;;32.60;7.78;;;12.60;33.70;;;;;;5088349;28;20202;-69
2022/02/25 04:14:50;;;;;;;;;;;12.50;33.40;;;;;;5090071;28;20081;-70
2022/02/25 04:17:19;;;;;;;42.88;8.50;;;12.40;33.60;;;;;;5086560;28;19973;-71
2022/02/25 04:19:46;;;;;;;61.42;10.57;;;12.40;33.70;;;;;;5072132;28;20101;-71
2022/02/25 04:22:13;;;;;;;43.72;9.60;;;12.30;33.60;;;;;;5087017;28;20084;-70
2022/02/25 04:24:41;;;;;;;36.15;9.45;;;12.30;33.80;;;;;;5090393;28;20095;-69
2022/02/25 04:27:09;;;;;;;36.95;9.75;;;12.20;34.00;;;;;;5091286;28;20130;-70
2022/02/25 04:29:36;;;;;;;38.45;10.55;;;12.20;34.30;;;;;;5104345;28;20076;-72
2022/02/25 04:32:03;;;;;;;32.50;9.55;;;12.10;34.60;;;;;;5072197;28;20076;-71
2022/02/25 04:34:29;;;;;;;41.25;10.65;;;12.10;34.80;;;;;;5094499;28;20147;-68
2022/02/25 04:36:55;;;;;;;48.80;11.70;;;12.10;34.90;;;;;;5088859;28;20527;-70
2022/02/25 04:39:21;;;;;;;;;;;12.10;35.00;;;;;;5088288;28;20560;-71
2022/02/25 04:41:48;;;;;;;59.25;11.10;;;12.10;35.60;;;;;;5086876;28;20074;-69
2022/02/25 04:44:14;;;;;;;50.17;9.20;;;12.10;35.40;;;;;;5087158;28;21016;-71
2022/02/25 04:46:41;;;;;;;;;;;12.10;34.80;;;;;;5071148;28;20098;-69
2022/02/25 04:49:07;;;;;;;43.90;6.75;;;12.10;34.60;;;;;;5091957;28;20326;-68
2022/02/25 04:51:34;;;;;;;49.67;8.05;;;12.00;34.60;;;;;;5089720;28;20489;-72
2022/02/25 04:54:01;;;;;;;37.25;8.00;;;12.00;34.70;;;;;;5085714;28;20073;-71
2022/02/25 04:56:36;;;;;;;42.92;7.63;;;11.90;34.70;;;;;;5086381;28;20096;-73
2022/02/25 04:59:03;;;;;;;46.28;6.65;;;11.90;34.80;;;;;;5084447;28;20614;-69
2022/02/25 05:01:29;;;;;;;;;;;11.80;34.70;;;;;;5087254;28;20205;-68
2022/02/25 05:03:55;;;;;;;41.95;7.97;;;11.80;34.90;;;;;;5089321;28;19964;-68
2022/02/25 05:06:21;;;;;;;36.33;6.45;;;11.80;35.40;;;;;;5086193;28;20514;-70
2022/02/25 05:08:47;;;;;;;;;;;11.80;35.80;;;;;;5090559;28;20092;-70
2022/02/25 05:11:14;;;;;;;40.20;7.05;;;11.70;35.70;;;;;;5091809;28;19957;-69
2022/02/25 05:13:45;;;;;;;51.60;6.60;;;11.70;35.90;;;;;;5094229;28;20079;-72
2022/02/25 05:21:41;;;;;;;38.08;8.25;;;11.70;37.00;;;;;;5087941;28;20103;-71
2022/02/25 05:24:07;;;;;;;;;;;11.60;37.00;;;;;;5086458;28;20069;-70
2022/02/25 05:26:34;;;;;;;44.30;9.50;;;11.60;37.10;;;;;;5091586;28;19957;-71
2022/02/25 05:29:00;;;;;;;;;;;11.50;37.30;;;;;;5090434;28;20322;-69
2022/02/25 05:31:26;;;;;;;39.08;9.32;;;11.40;37.50;;;;;;5092763;28;19980;-68
2022/02/25 05:33:53;;;;;;;39.35;10.27;;;11.40;37.80;;;;;;5090440;28;20112;-71
2022/02/25 05:36:20;;;;;;;38.90;8.57;;;11.30;38.00;;;;;;5091559;28;20145;-71
2022/02/25 05:38:48;;;;;;;;;;;11.20;38.10;;;;;;5092154;28;20454;-70
2022/02/25 05:41:16;;;;;;;47.78;9.85;;;11.20;38.30;;;;;;5089767;28;20009;-72
2022/02/25 05:43:43;;;;;;;36.08;9.48;;;11.10;38.70;;;;;;5093557;28;20557;-70
2022/02/25 05:46:10;;;;;;;38.63;9.38;;;11.10;39.20;;;;;;5089846;28;20100;-70
2022/02/25 05:48:37;;;;;;;39.03;9.57;;;11.10;39.30;;;;;;5056039;28;20074;-69
2022/02/25 05:51:03;;;;;;;55.40;10.90;;;11.10;39.40;;;;;;5089840;28;20079;-68
2022/02/25 05:53:30;;;;;;;53.45;9.45;;;11.00;39.80;;;;;;5089869;28;20479;-69
2022/02/25 05:55:56;;;;;;;37.63;8.95;;;10.90;39.40;;;;;;5090572;28;20079;-70
2022/02/25 05:58:22;;;;;;;;;;;10.90;39.60;;;;;;5073527;28;20522;-70
2022/02/25 06:00:48;;;;;;;41.90;7.80;;;10.80;39.90;;;;;;5089131;28;19981;-67
2022/02/25 06:03:15;;;;;;;;;;;10.80;40.50;;;;;;5072549;28;20558;-70
2022/02/25 06:05:41;;;;;;;41.28;7.75;;;10.70;40.30;;;;;;5095517;28;20024;-70
2022/02/25 06:08:07;;;;;;;;;;;10.80;39.90;;;;;;5089229;28;20126;-71
2022/02/25 06:10:34;;;;;;;49.70;9.60;;;10.80;39.90;;;;;;5090231;28;20058;-71
2022/02/25 06:13:00;;;;;;;57.63;10.88;;;10.70;39.90;;;;;;5071976;28;20072;-70
2022/02/25 06:15:27;;;;;;;45.25;8.80;;;10.70;40.30;;;;;;5092324;28;20461;-69
2022/02/25 06:17:53;;;;;;;64.32;10.25;;;10.70;40.60;;;;;;5087500;28;20154;-68
2022/02/25 06:20:20;;;;;;;;;;;10.70;40.40;;;;;;5092952;28;20110;-70
2022/02/25 06:22:47;;;;;;;49.40;8.48;;;10.70;40.90;;;;;;5088648;28;19972;-71
2022/02/25 06:25:15;;;;;;;60.10;9.25;;;10.70;41.10;;;;;;5072023;28;20449;-72
2022/02/25 06:27:41;;;;;;;35.90;9.00;;;10.70;41.20;;;;;;5089226;28;20065;-69
2022/02/25 06:30:10;;;;;;;43.05;8.02;;;10.70;41.10;;;;;;5085764;28;20083;-70
2022/02/25 06:32:37;;;;;;;51.70;8.10;;;10.70;41.20;;;;;;5087111;28;20084;-71
2022/02/25 06:35:04;;;;;;;46.42;8.40;;;10.70;41.20;;;;;;5088827;28;20526;-69
2022/02/25 06:37:30;;;;;;;45.70;7.95;;;10.70;41.00;;;;;;5089046;28;20088;-73
2022/02/25 06:39:57;;;;;;;34.88;8.18;;;10.60;41.00;;;;;;5088050;28;20496;-70
2022/02/25 06:42:23;;;;;;;;;;;10.60;40.90;;;;;;5088497;28;20081;-70
2022/02/25 06:44:50;;;;;;;38.15;8.82;;;10.50;40.90;;;;;;5088631;28;19981;-68
2022/02/25 06:47:17;;;;;;;37.05;8.13;;;10.50;41.60;;;;;;5087015;28;20073;-69
2022/02/25 06:49:45;;;;;;;44.47;8.48;;;10.50;42.10;;;;;;5088263;28;20138;-70
2022/02/25 06:52:11;;;;;;;35.10;8.02;;;10.50;41.50;;;;;;5087288;28;20084;-69
2022/02/25 06:54:37;;;;;;;;;;;10.40;41.40;;;;;;5087813;28;20146;-69
2022/02/25 06:57:04;;;;;;;40.15;8.32;;;10.40;41.50;;;;;;5085355;28;19996;-72
2022/02/25 06:59:30;;;;;;;33.42;8.75;;;10.30;41.60;;;;;;5087197;28;20094;-71
2022/02/25 07:01:56;;;;;;;;;;;10.30;41.60;;;;;;5085293;28;20124;-71
2022/02/25 07:04:22;;;;;;;37.47;11.18;;;10.20;41.30;;;;;;5085368;28;19960;-71
2022/02/25 07:06:51;;;;;;;;;;;10.20;41.40;;;;;;5086454;28;20104;-71
2022/02/25 07:09:18;;;;;;;44.42;11.30;;;10.20;41.30;;;;;;5088971;28;20047;-69
2022/02/25 07:11:44;;;;;;;49.20;12.55;;;10.10;41.60;;;;;;5088647;28;21056;-71
2022/02/25 07:14:10;;;;;;;41.78;11.13;;;10.10;41.80;;;;;;5088488;28;20065;-69
2022/02/25 07:16:36;;;;;;;;;;;10.10;42.20;;;;;;5087697;28;20112;-71
2022/02/25 07:19:03;;;;;;;49.25;11.27;;;10.20;42.50;;;;;;5087943;28;20484;-71
2022/02/25 07:21:30;;;;;;;41.30;10.68;;;10.20;42.90;;;;;;5086279;28;20096;-71
2022/02/25 07:23:56;;;;;;;47.45;10.88;;;10.00;42.80;;;;;;5070424;28;20089;-70
2022/02/25 07:26:22;;;;;;;63.03;12.90;;;10.10;43.10;;;;;;5087889;28;20065;-71
2022/02/25 07:28:48;;;;;;;;;;;10.00;43.10;;;;;;5088868;28;20210;-71
2022/02/25 07:31:15;;;;;;;68.47;12.65;;;10.00;43.30;;;;;;5087558;28;20327;-68
2022/02/25 07:33:41;;;;;;;46.83;13.18;;;10.00;43.40;;;;;;5086970;28;20114;-69
2022/02/25 07:36:08;;;;;;;71.05;15.75;;;9.90;43.60;;;;;;5086141;28;20442;-71
2022/02/25 07:38:34;;;;;;;63.53;16.95;;;10.00;44.00;;;;;;5088816;28;20153;-70
2022/02/25 07:41:01;;;;;;;67.15;17.92;;;10.00;44.10;;;;;;5086966;28;20076;-71
2022/02/25 07:43:27;;;;;;;;;;;9.80;43.90;;;;;;5088709;28;20122;-71
2022/02/25 07:45:54;;;;;;;75.22;22.00;;;9.80;43.50;;;;;;5088658;28;19961;-70
2022/02/25 07:48:20;;;;;;;71.95;19.48;;;9.80;43.30;;;;;;5089244;28;20072;-73
2022/02/25 07:50:48;;;;;;;85.72;19.65;;;9.80;42.90;;;;;;5087497;28;20069;-70
2022/02/25 07:53:16;;;;;;;60.45;17.88;;;9.80;43.20;;;;;;5087449;28;20076;-70
2022/02/25 07:55:42;;;;;;;64.85;16.85;;;9.80;42.50;;;;;;5087151;28;20534;-71
2022/02/25 07:58:08;;;;;;;;;;;9.70;42.60;;;;;;5071106;28;20080;-73
2022/02/25 08:00:35;;;;;;;69.50;17.73;;;9.70;42.70;;;;;;5069900;28;19980;-68
2022/02/25 08:03:02;;;;;;;71.10;17.45;;;9.70;42.20;;;;;;5086664;28;20105;-70
2022/02/25 08:05:31;;;;;;;66.07;16.02;;;9.70;42.30;;;;;;5088359;28;20471;-69
2022/02/25 08:08:03;;;;;;;56.88;15.18;;;9.70;42.50;;;;;;5086569;28;20064;-71
2022/02/25 08:10:32;;;;;;;83.13;18.50;;;9.60;42.60;;;;;;5086882;28;20164;-69
2022/02/25 08:12:59;;;;;;;76.53;21.90;;;9.70;42.50;;;;;;5087428;28;20076;-71
2022/02/25 08:15:26;;;;;;;86.25;25.25;;;9.70;42.40;;;;;;5087032;28;20084;-71
2022/02/25 08:17:53;;;;;;;109.88;28.45;;;9.70;42.20;;;;;;5086348;28;20411;-71
2022/02/25 08:20:19;;;;;;;93.45;29.13;;;9.70;42.20;;;;;;5087026;28;20095;-71
2022/02/25 08:22:46;;;;;;;110.75;31.15;;;9.60;42.10;;;;;;5085536;28;20187;-71
2022/02/25 08:25:12;;;;;;;;;;;9.60;42.30;;;;;;5072904;28;20079;-71
2022/02/25 08:27:39;;;;;;;107.22;34.00;;;9.60;42.10;;;;;;5086890;28;19957;-71
2022/02/25 08:30:07;;;;;;;;;;;9.60;42.00;;;;;;5085295;28;20081;-70
2022/02/25 08:32:33;;;;;;;108.03;32.88;;;9.50;41.90;;;;;;5088112;28;19964;-72
2022/02/25 08:35:00;;;;;;;118.28;33.97;;;9.50;42.10;;;;;;5086759;28;20100;-72
2022/02/25 08:37:26;;;;;;;;;;;9.50;42.10;;;;;;5070417;28;20120;-72
2022/02/25 08:39:52;;;;;;;107.28;34.20;;;9.60;42.10;;;;;;5090897;28;19964;-71
2022/02/25 08:42:19;;;;;;;110.75;31.38;;;9.50;41.90;;;;;;5087593;28;20085;-72
2022/02/25 08:44:45;;;;;;;;;;;9.50;41.90;;;;;;5087816;28;20089;-73
2022/02/25 08:47:11;;;;;;;78.60;23.27;;;9.50;41.50;;;;;;5086854;28;19961;-72
2022/02/25 08:49:37;;;;;;;;;;;9.50;40.50;;;;;;5086320;28;20523;-72
2022/02/25 08:52:09;;;;;;;93.60;34.45;;;9.40;40.00;;;;;;5087149;28;20037;-71
2022/02/25 08:54:37;;;;;;;153.90;66.45;;;9.40;39.60;;;;;;5086811;28;20073;-72
2022/02/25 08:57:04;;;;;;;189.18;97.40;;;9.40;39.30;;;;;;5087747;28;20077;-72
2022/02/25 08:59:31;;;;;;;216.45;104.47;;;9.40;38.80;;;;;;5086026;28;20558;-73
2022/02/25 09:01:57;;;;;;;218.70;109.97;;;9.40;38.90;;;;;;5091419;28;20113;-71
2022/02/25 09:04:23;;;;;;;229.25;109.65;;;9.30;39.20;;;;;;5089955;28;20156;-72
2022/02/25 09:06:49;;;;;;;;;;;9.40;39.00;;;;;;5091355;28;20577;-72
2022/02/25 09:09:16;;;;;;;156.13;81.05;;;9.30;38.70;;;;;;5090249;28;19957;-70
2022/02/25 09:11:42;;;;;;;;;;;9.30;38.40;;;;;;5091380;28;20087;-74
2022/02/25 09:14:09;;;;;;;111.65;56.10;;;9.30;38.50;;;;;;5091039;28;19972;-70
2022/02/25 09:16:36;;;;;;;92.03;40.55;;;9.20;38.10;;;;;;5089701;28;20937;-72
2022/02/25 09:19:03;;;;;;;78.50;30.40;;;9.30;38.00;;;;;;5089701;28;20095;-70
2022/02/25 09:21:29;;;;;;;65.15;25.55;;;9.20;38.00;;;;;;5090795;28;20107;-70
2022/02/25 09:23:56;;;;;;;49.42;20.63;;;9.20;38.00;;;;;;5090973;28;20069;-69
2022/02/25 09:26:26;;;;;;;46.53;18.30;;;9.20;38.00;;;;;;5089342;28;20081;-70
2022/02/25 09:28:52;;;;;;;44.22;14.70;;;9.20;38.20;;;;;;5091333;28;20084;-71
2022/02/25 09:31:18;;;;;;;;;;;9.20;38.30;;;;;;5090438;28;20523;-70
2022/02/25 09:33:45;;;;;;;24.45;10.68;;;9.10;38.50;;;;;;5089939;28;20002;-70
2022/02/25 09:36:11;;;;;;;28.25;10.30;;;9.10;38.50;;;;;;5090405;28;20905;-71
2022/02/25 09:38:39;;;;;;;29.25;8.20;;;9.20;38.50;;;;;;5092992;28;20077;-70
2022/02/25 09:41:06;;;;;;;28.55;7.03;;;9.10;38.50;;;;;;5089998;28;20446;-70
2022/02/25 09:43:33;;;;;;;13.30;4.88;;;9.10;38.50;;;;;;5090828;28;20069;-71
2022/02/25 09:46:05;;;;;;;15.10;4.63;;;9.10;38.30;;;;;;5090200;28;20077;-72
2022/02/25 09:48:32;;;;;;;14.15;3.60;;;9.10;38.20;;;;;;5089029;28;20083;-72
2022/02/25 09:50:58;;;;;;;18.15;3.80;;;9.10;38.10;;;;;;5090255;28;20156;-72
2022/02/25 09:53:25;;;;;;;18.92;3.90;;;9.10;38.20;;;;;;5088004;28;20069;-71
2022/02/25 09:55:52;;;;;;;19.75;2.92;;;9.00;38.20;;;;;;5090787;28;20072;-71
2022/02/25 09:58:18;;;;;;;15.27;2.47;;;9.10;38.40;;;;;;5089523;28;20069;-72
2022/02/25 10:00:45;;;;;;;10.15;1.80;;;9.00;38.40;;;;;;5088444;28;20179;-71
2022/02/25 10:03:14;;;;;;;14.00;2.05;;;9.10;38.20;;;;;;5090963;28;20098;-70
2022/02/25 10:05:42;;;;;;;7.25;2.00;;;9.00;38.00;;;;;;5088412;28;20065;-70
2022/02/25 10:08:21;;;;;;;12.38;2.90;;;9.00;37.90;;;;;;5072351;28;20100;-71
2022/02/25 10:10:50;;;;;;;10.77;2.88;;;9.00;37.70;;;;;;5088378;28;20438;-71
2022/02/25 10:13:19;;;;;;;18.63;3.40;;;9.00;37.60;;;;;;5096341;28;20164;-71
2022/02/25 10:15:47;;;;;;;13.55;4.28;;;8.90;37.60;;;;;;5090605;28;20077;-70
2022/02/25 10:18:26;;;;;;;16.73;6.00;;;8.90;37.70;;;;;;5088161;28;20095;-71
2022/02/25 10:21:04;;;;;;;23.00;7.20;;;8.90;37.70;;;;;;5088592;28;20130;-72
2022/02/25 10:23:38;;;;;;;17.35;8.38;;;8.80;37.90;;;;;;5088504;28;20096;-71
2022/02/25 10:26:16;;;;;;;16.33;5.93;;;8.80;38.10;;;;;;5089502;28;20064;-70
2022/02/25 10:28:46;;;;;;;12.23;4.03;;;8.70;38.30;;;;;;5088035;28;20083;-71
2022/02/25 10:31:26;;;;;;;12.20;2.97;;;8.70;38.50;;;;;;5088692;28;20446;-71
2022/02/25 10:34:14;;;;;;;14.48;2.60;;;8.70;38.60;;;;;;5088903;28;20072;-71
2022/02/25 10:36:53;;;;;;;6.65;2.83;;;8.70;39.40;;;;;;5089304;28;20076;-70
2022/02/25 10:39:26;;;;;;;13.45;2.90;;;8.60;38.90;;;;;;5088391;28;20593;-72
2022/02/25 10:42:07;;;;;;;14.00;2.45;;;8.60;38.90;;;;;;5088538;28;20119;-70
2022/02/25 10:44:42;;;;;;;9.52;2.17;;;8.60;38.90;;;;;;5089039;28;20068;-71
2022/02/25 10:47:26;;;;;;;15.90;2.08;;;8.50;39.00;;;;;;5089532;28;20087;-70
2022/02/25 10:50:15;;;;;;;9.10;1.83;;;8.50;39.00;;;;;;5087462;28;20511;-70
2022/02/25 10:52:47;;;;;;;12.48;1.83;;;8.50;38.90;;;;;;5088487;28;20092;-73
2022/02/25 10:55:19;;;;;;;4.05;1.45;;;8.50;39.10;;;;;;5088081;28;20182;-71
2022/02/25 10:57:46;;;;;;;10.63;2.33;;;8.50;39.10;;;;;;5087918;28;20077;-72
2022/02/25 11:00:15;;;;;;;10.55;1.35;;;8.40;39.70;;;;;;5086664;28;20077;-71
2022/02/25 11:02:45;;;;;;;8.10;1.73;;;8.40;39.20;;;;;;5088838;28;20095;-71
2022/02/25 11:05:16;;;;;;;10.73;1.80;;;8.30;39.40;;;;;;5088361;28;20146;-71
2022/02/25 11:07:54;;;;;;;12.05;2.05;;;8.30;39.60;;;;;;5087661;28;20081;-71
2022/02/25 11:10:23;;;;;;;9.32;1.67;;;8.30;39.90;;;;;;5088268;28;20530;-70
2022/02/25 11:12:51;;;;;;;12.68;1.80;;;8.30;40.00;;;;;;5087506;28;20081;-70
2022/02/25 11:15:29;;;;;;;18.10;1.55;;;8.30;40.00;;;;;;5089047;28;20095;-69
2022/02/25 11:17:56;;;;;;;13.68;2.10;;;8.30;40.20;;;;;;5087865;28;20077;-70
2022/02/25 11:20:26;;;;;;;5.97;1.25;;;8.30;40.30;;;;;;5089109;28;20084;-70
2022/02/25 11:23:04;;;;;;;2.67;1.20;;;8.20;40.50;;;;;;5086206;28;20084;-70
2022/02/25 11:25:33;;;;;;;15.35;1.58;;;8.30;40.70;;;;;;5088793;28;20061;-71
2022/02/25 11:28:00;;;;;;;7.85;0.95;;;8.20;40.90;;;;;;5087575;28;20534;-70
2022/02/25 11:30:57;;;;;;;10.18;1.30;;;8.20;41.00;;;;;;5087143;28;20065;-71
2022/02/25 11:33:25;;;;;;;13.10;1.40;;;8.30;41.00;;;;;;5086483;28;20534;-71
2022/02/25 11:36:04;;;;;;;5.13;1.50;;;8.30;41.00;;;;;;5087469;28;20426;-71
2022/02/25 11:38:33;;;;;;;7.88;1.30;;;8.30;41.10;;;;;;5087466;28;20556;-71
2022/02/25 11:41:04;;;;;;;6.10;1.13;;;8.20;41.10;;;;;;5088119;28;20162;-71
2022/02/25 11:43:39;;;;;;;13.20;1.40;;;8.30;41.20;;;;;;5088046;28;20549;-72
2022/02/25 11:46:09;;;;;;;12.48;1.33;;;8.20;41.20;;;;;;5087968;28;20407;-71
2022/02/25 11:48:45;;;;;;;6.88;1.30;;;8.20;41.20;;;;;;5086126;28;20570;-72
2022/02/25 11:51:37;;;;;;;5.68;1.67;;;8.20;41.30;;;;;;5086895;28;20106;-71
2022/02/25 11:54:26;;;;;;;9.45;1.70;;;8.20;41.20;;;;;;5089556;28;20925;-70
2022/02/25 11:57:20;;;;;;;10.88;1.50;;;8.20;41.20;;;;;;5088131;28;20078;-70
2022/02/25 11:59:44;;;;;;;11.32;1.20;;;8.20;41.00;;;;;;5088085;28;20118;-70
2022/02/25 12:02:19;;;;;;;12.30;1.30;;;8.20;40.90;;;;;;5085241;28;20104;-73
2022/02/25 12:05:08;;;;;;;9.43;1.27;;;8.20;41.00;;;;;;5087954;28;20484;-71
2022/02/25 12:07:44;;;;;;;16.42;1.92;;;8.20;40.80;;;;;;5085856;28;20065;-71
2022/02/25 12:10:16;;;;;;;7.95;1.33;;;8.20;40.60;;;;;;5085249;28;20429;-71
2022/02/25 12:13:04;;;;;;;7.38;1.60;;;8.20;40.50;;;;;;5088377;28;20077;-70
2022/02/25 12:15:39;;;;;;;9.75;1.40;;;8.20;40.60;;;;;;5086422;28;20079;-70
2022/02/25 12:18:09;;;;;;;12.00;1.95;;;8.20;40.50;;;;;;5086074;28;20608;-70
2022/02/25 12:20:37;;;;;;;9.55;1.60;;;8.20;40.50;;;;;;5085503;28;20077;-70
2022/02/25 12:23:09;;;;;;;9.15;1.70;;;8.20;40.30;;;;;;5087182;28;20554;-71
2022/02/25 12:25:42;;;;;;;8.95;1.33;;;8.30;40.20;;;;;;5087812;28;20073;-72
2022/02/25 12:28:13;;;;;;;11.05;1.48;;;8.30;40.10;;;;;;5087527;28;20461;-71
2022/02/25 12:30:48;;;;;;;7.60;1.52;;;8.30;40.00;;;;;;5088280;28;20146;-70
2022/02/25 12:33:31;;;;;;;7.57;1.10;;;8.30;40.20;;;;;;5087330;28;20119;-71
2022/02/25 12:36:01;;;;;;;6.18;1.35;;;8.20;40.20;;;;;;5090886;28;21376;-72
2022/02/25 12:38:30;;;;;;;10.15;1.60;;;8.30;40.20;;;;;;5073699;28;20076;-71
2022/02/25 12:41:18;;;;;;;11.10;1.30;;;8.30;40.10;;;;;;5091608;28;20441;-69
2022/02/25 12:43:47;;;;;;;;;;;8.20;40.10;;;;;;5092362;28;20137;-70
2022/02/25 12:46:14;;;;;;;9.30;1.70;;;8.30;40.20;;;;;;5090313;28;19968;-71
2022/02/25 12:48:40;;;;;;;13.43;2.17;;;8.20;40.20;;;;;;5091808;28;20074;-70
2022/02/25 12:51:07;;;;;;;10.15;1.85;;;8.30;40.10;;;;;;5092208;28;20146;-69
2022/02/25 12:53:48;;;;;;;8.88;1.50;;;8.20;40.00;;;;;;5090268;28;20083;-71
2022/02/25 12:56:18;;;;;;;15.52;1.38;;;8.20;40.10;;;;;;5092140;28;20092;-70
2022/02/25 12:58:45;;;;;;;11.80;1.73;;;8.20;40.10;;;;;;5090283;28;20163;-69
2022/02/25 13:01:15;;;;;;;;;;;8.20;40.00;;;;;;5090955;28;20166;-71
2022/02/25 13:03:42;;;;;;;10.05;1.23;;;8.30;39.90;;;;;;5088170;28;20026;-70
2022/02/25 13:06:08;;;;;;;;;;;8.20;39.80;;;;;;5090637;28;20155;-71